createdAt,value
2022-11-18T00:02:19.896Z,85885.28
2022-11-18T00:04:47.040Z,85893.50
2022-11-18T00:07:14.234Z,85890.53
2022-11-18T00:09:41.500Z,85877.44
2022-11-18T00:12:08.632Z,85875.97
2022-11-18T00:14:35.856Z,85877.06
2022-11-18T00:17:06.038Z,85866.63
2022-11-18T00:19:37.345Z,85851.66
2022-11-18T00:22:11.066Z,85857.66
2022-11-18T00:24:38.277Z,85858.03
2022-11-18T00:27:05.678Z,85853.94
2022-11-18T00:29:32.891Z,85844.25
2022-11-18T00:32:00.056Z,85845.34
2022-11-18T00:34:27.651Z,85834.91
2022-11-18T00:36:54.958Z,85820.72
2022-11-18T00:39:22.174Z,85810.25
2022-11-18T00:41:50.010Z,85800.53
2022-11-18T00:44:17.470Z,85801.66
2022-11-18T00:46:44.676Z,85811.38
2022-11-18T00:49:11.831Z,85831.19
2022-11-18T00:51:38.995Z,85838.31
2022-11-18T00:54:06.692Z,85831.97
2022-11-18T00:56:34.020Z,85851.00
2022-11-18T00:59:01.176Z,85857.34
2022-11-18T01:01:28.746Z,85861.13
2022-11-18T01:03:56.314Z,85853.63
2022-11-18T01:06:23.755Z,85858.88
2022-11-18T01:08:51.659Z,85851.00
2022-11-18T01:11:18.923Z,85836.06
2022-11-18T01:13:48.792Z,85833.81
2022-11-18T01:16:24.917Z,85835.28
2022-11-18T01:18:52.699Z,85819.22
2022-11-18T01:21:20.425Z,85834.94
2022-11-18T01:23:48.438Z,85828.94
2022-11-18T01:26:17.819Z,85831.56
2022-11-18T01:28:45.732Z,85834.97
2022-11-18T01:31:19.331Z,85840.56
2022-11-18T01:33:47.293Z,85829.00
2022-11-18T01:36:23.792Z,85829.38
2022-11-18T01:38:52.457Z,85830.53
2022-11-18T01:41:23.268Z,85822.69
2022-11-18T01:44:04.027Z,85823.47
2022-11-18T01:46:34.279Z,85814.13
2022-11-18T01:49:13.672Z,85812.63
2022-11-18T01:51:58.190Z,85812.69
2022-11-18T01:54:31.429Z,85820.53
2022-11-18T01:57:06.561Z,85834.00
2022-11-18T01:59:41.543Z,85834.75
2022-11-18T02:02:14.304Z,85829.56
2022-11-18T02:04:47.450Z,85837.00
2022-11-18T02:07:16.165Z,85834.00
2022-11-18T02:09:44.394Z,85842.22
2022-11-18T02:12:13.426Z,85834.41
2022-11-18T02:14:46.748Z,85827.31
2022-11-18T02:18:14.663Z,85826.22
2022-11-18T02:20:46.160Z,85817.28
2022-11-18T02:23:51.185Z,85819.16
2022-11-18T02:26:44.623Z,85809.09
2022-11-18T02:29:26.959Z,85802.00
2022-11-18T02:32:13.307Z,85792.31
2022-11-18T02:34:54.505Z,85786.34
2022-11-18T02:37:56.191Z,85775.16
2022-11-18T02:40:31.981Z,85765.81
2022-11-18T02:43:08.268Z,85756.84
2022-11-18T02:45:38.358Z,85750.50
2022-11-18T02:48:12.346Z,85744.53
2022-11-18T02:50:44.934Z,85739.66
2022-11-18T02:53:19.017Z,85740.06
2022-11-18T02:55:48.383Z,85741.53
2022-11-18T02:58:19.331Z,85728.84
2022-11-18T03:00:58.291Z,85720.25
2022-11-18T03:03:35.284Z,85724.00
2022-11-18T03:06:41.810Z,85710.97
2022-11-18T03:09:31.470Z,85714.69
2022-11-18T03:12:41.984Z,85712.84
2022-11-18T03:15:50.627Z,85712.09
2022-11-18T03:18:46.344Z,85704.63
2022-11-18T03:21:32.074Z,85700.56
2022-11-18T03:24:34.075Z,85700.91
2022-11-18T03:27:15.425Z,85689.34
2022-11-18T03:29:52.617Z,85694.97
2022-11-18T03:32:33.201Z,85688.63
2022-11-18T03:35:07.610Z,85693.84
2022-11-18T03:37:38.527Z,85692.03
2022-11-18T03:40:21.125Z,85691.28
2022-11-18T03:43:00.969Z,85695.38
2022-11-18T03:45:52.460Z,85706.56
2022-11-18T03:48:30.088Z,85701.78
2022-11-18T03:51:30.653Z,85699.16
2022-11-18T03:54:10.486Z,85683.13
2022-11-18T03:56:54.382Z,85684.25
2022-11-18T03:59:31.627Z,85685.00
2022-11-18T04:02:14.035Z,85670.81
2022-11-18T04:04:44.121Z,85678.66
2022-11-18T04:07:31.897Z,85678.66
2022-11-18T04:10:14.523Z,85680.13
2022-11-18T04:12:50.669Z,85681.25
2022-11-18T04:15:19.051Z,85681.28
2022-11-18T04:17:46.321Z,85672.69
2022-11-18T04:20:21.480Z,85676.44
2022-11-18T04:22:49.307Z,85673.81
2022-11-18T04:25:16.898Z,85675.72
2022-11-18T04:27:44.383Z,85668.63
2022-11-18T04:30:12.475Z,85668.59
2022-11-18T04:32:39.731Z,85670.84
2022-11-18T04:35:07.126Z,85664.13
2022-11-18T04:37:34.659Z,85667.84
2022-11-18T04:40:01.929Z,85666.75
2022-11-18T04:42:29.223Z,85651.44
2022-11-18T04:44:56.558Z,85654.47
2022-11-18T04:47:23.820Z,85658.91
2022-11-18T04:49:51.100Z,85655.56
2022-11-18T04:52:18.754Z,85653.72
2022-11-18T04:54:46.296Z,85657.41
2022-11-18T04:57:14.233Z,85655.19
2022-11-18T04:59:41.693Z,85660.78
2022-11-18T05:02:09.308Z,85654.81
2022-11-18T05:04:39.283Z,85658.56
2022-11-18T05:07:07.030Z,85655.19
2022-11-18T05:09:34.441Z,85658.19
2022-11-18T05:12:02.030Z,85653.72
2022-11-18T05:14:30.791Z,85655.56
2022-11-18T05:17:02.931Z,85667.88
2022-11-18T05:19:30.245Z,85662.31
2022-11-18T05:21:58.223Z,85655.19
2022-11-18T05:24:25.592Z,85658.94
2022-11-18T05:26:54.596Z,85666.78
2022-11-18T05:29:23.062Z,85659.72
2022-11-18T05:31:50.758Z,85656.31
2022-11-18T05:34:19.097Z,85653.69
2022-11-18T05:36:46.460Z,85653.69
2022-11-18T05:39:13.741Z,85655.91
2022-11-18T05:41:41.059Z,85653.66
2022-11-18T05:44:08.254Z,85659.63
2022-11-18T05:46:35.459Z,85654.03
2022-11-18T05:49:02.686Z,85653.28
2022-11-18T05:51:29.985Z,85650.63
2022-11-18T05:53:58.699Z,85649.53
2022-11-18T05:56:46.209Z,85653.28
2022-11-18T05:59:14.558Z,85657.75
2022-11-18T06:01:50.938Z,85651.38
2022-11-18T06:04:33.453Z,85648.81
2022-11-18T06:07:18.777Z,85651.78
2022-11-18T06:09:52.341Z,85648.03
2022-11-18T06:12:27.588Z,85649.13
2022-11-18T06:15:16.172Z,85659.97
2022-11-18T06:18:04.556Z,85651.38
2022-11-18T06:20:36.219Z,85657.34
2022-11-18T06:23:03.535Z,85661.44
2022-11-18T06:25:31.200Z,85676.00
2022-11-18T06:28:02.405Z,85674.09
2022-11-18T06:30:30.109Z,85667.78
2022-11-18T06:32:57.311Z,85684.94
2022-11-18T06:35:24.609Z,85692.03
2022-11-18T06:37:51.746Z,85692.03
2022-11-18T06:40:19.105Z,85684.19
2022-11-18T06:42:46.449Z,85693.53
2022-11-18T06:45:14.057Z,85684.16
2022-11-18T06:47:41.448Z,85690.88
2022-11-18T06:50:09.367Z,85696.78
2022-11-18T06:52:36.567Z,85698.31
2022-11-18T06:55:04.224Z,85697.94
2022-11-18T06:57:31.505Z,85696.78
2022-11-18T07:00:01.967Z,85698.66
2022-11-18T07:02:29.667Z,85708.34
2022-11-18T07:04:56.909Z,85713.94
2022-11-18T07:07:24.290Z,85710.56
2022-11-18T07:09:51.456Z,85716.88
2022-11-18T07:12:18.906Z,85725.84
2022-11-18T07:14:46.412Z,85727.34
2022-11-18T07:17:13.776Z,85738.50
2022-11-18T07:19:40.969Z,85729.56
2022-11-18T07:22:08.186Z,85728.78
2022-11-18T07:24:35.456Z,85731.03
2022-11-18T07:27:02.617Z,85735.84
2022-11-18T07:29:29.850Z,85737.31
2022-11-18T07:31:56.992Z,85744.41
2022-11-18T07:34:24.302Z,85749.63
2022-11-18T07:36:51.736Z,85748.84
2022-11-18T07:39:19.313Z,85756.31
2022-11-18T07:41:46.738Z,85755.16
2022-11-18T07:44:14.253Z,85750.28
2022-11-18T07:46:41.720Z,85755.13
2022-11-18T07:49:11.222Z,85753.97
2022-11-18T07:51:40.423Z,85758.81
2022-11-18T07:54:13.720Z,85765.50
2022-11-18T07:56:41.106Z,85770.38
2022-11-18T07:59:08.932Z,85765.91
2022-11-18T08:01:36.632Z,85771.84
2022-11-18T08:04:10.414Z,85764.34
2022-11-18T08:06:38.901Z,85773.31
2022-11-18T08:09:08.139Z,85763.19
2022-11-18T08:11:36.470Z,85773.63
2022-11-18T08:14:04.317Z,85776.94
2022-11-18T08:16:31.460Z,85768.66
2022-11-18T08:18:59.865Z,85767.50
2022-11-18T08:21:27.148Z,85767.78
2022-11-18T08:23:57.883Z,85763.28
2022-11-18T08:26:27.564Z,85765.09
2022-11-18T08:28:55.576Z,85769.91
2022-11-18T08:31:26.957Z,85775.09
2022-11-18T08:34:06.699Z,85769.78
2022-11-18T08:36:37.786Z,85776.09
2022-11-18T08:39:11.034Z,85777.91
2022-11-18T08:41:41.957Z,85778.22
2022-11-18T08:44:14.720Z,85785.66
2022-11-18T08:46:43.906Z,85783.75
2022-11-18T08:49:11.782Z,85790.81
2022-11-18T08:51:39.277Z,85792.69
2022-11-18T08:54:06.592Z,85794.16
2022-11-18T08:56:36.931Z,85789.63
2022-11-18T08:59:04.302Z,85803.09
2022-11-18T09:01:31.631Z,85792.63
2022-11-18T09:03:58.932Z,85806.03
2022-11-18T09:06:26.360Z,85799.25
2022-11-18T09:08:54.805Z,85802.22
2022-11-18T09:11:25.380Z,85795.47
2022-11-18T09:16:46.529Z,85805.94
2022-11-18T09:19:46.687Z,85813.00
2022-11-18T09:22:05.995Z,85815.97
2022-11-18T09:24:34.106Z,85812.97
2022-11-18T09:27:09.587Z,85814.06
2022-11-18T09:29:39.619Z,85810.34
2022-11-18T09:32:06.839Z,85817.81
2022-11-18T09:34:35.162Z,85810.66
2022-11-18T09:37:05.158Z,85810.63
2022-11-18T09:39:35.599Z,85805.75
2022-11-18T09:42:31.458Z,85801.63
2022-11-18T09:45:25.191Z,85803.13
2022-11-18T09:48:07.869Z,85798.97
2022-11-18T09:50:53.709Z,85801.53
2022-11-18T09:53:26.344Z,85801.53
2022-11-18T09:55:55.930Z,85797.41
2022-11-18T09:58:35.010Z,85796.63
2022-11-18T10:01:03.919Z,85790.22
2022-11-18T10:03:33.652Z,85780.09
2022-11-18T10:06:22.014Z,85772.59
2022-11-18T10:09:14.915Z,85771.03
2022-11-18T10:12:16.844Z,85778.81
2022-11-18T10:15:14.791Z,85767.97
2022-11-18T10:17:44.813Z,85780.25
2022-11-18T10:20:57.880Z,85772.38
2022-11-18T10:23:42.053Z,85777.97
2022-11-18T10:26:09.303Z,85779.50
2022-11-18T10:28:36.783Z,85775.00
2022-11-18T10:31:12.102Z,85775.75
2022-11-18T10:33:39.938Z,85767.88
2022-11-18T10:36:29.382Z,85765.69
2022-11-18T10:39:15.385Z,85770.59
2022-11-18T10:41:57.181Z,85767.72
2022-11-18T10:44:39.866Z,85756.47
2022-11-18T10:47:31.536Z,85763.59
2022-11-18T10:50:30.975Z,85757.91
2022-11-18T10:52:58.514Z,85754.84
2022-11-18T10:55:28.618Z,85751.41
2022-11-18T10:58:11.120Z,85752.03
2022-11-18T11:00:40.439Z,85753.59
2022-11-18T11:03:20.864Z,85751.59
2022-11-18T11:05:48.097Z,85750.41
2022-11-18T11:08:39.565Z,85749.16
2022-11-18T11:11:22.268Z,85741.09
2022-11-18T11:13:49.548Z,85739.84
2022-11-18T11:16:26.159Z,85732.69
2022-11-18T11:19:02.370Z,85729.66
2022-11-18T11:21:30.562Z,85724.31
2022-11-18T11:23:58.470Z,85725.06
2022-11-18T11:29:56.873Z,85715.97
2022-11-18T11:32:36.000Z,85721.09
2022-11-18T11:35:19.213Z,85722.16
2022-11-18T11:38:00.416Z,85727.66
2022-11-18T11:41:09.615Z,85713.72
2022-11-18T11:44:40.144Z,85713.75
2022-11-18T11:47:25.133Z,85710.72
2022-11-18T11:50:21.119Z,85706.28
2022-11-18T11:53:03.332Z,85715.09
2022-11-18T11:56:00.110Z,85721.38
2022-11-18T11:59:00.181Z,85717.66
2022-11-18T12:02:03.931Z,85716.09
2022-11-18T12:05:11.213Z,85721.03
2022-11-18T12:07:51.446Z,85719.69
2022-11-18T12:10:35.684Z,85721.16
2022-11-18T12:13:24.715Z,85717.31
2022-11-18T12:16:35.374Z,85716.06
2022-11-18T12:19:15.239Z,85722.91
2022-11-18T12:21:47.761Z,85716.03
2022-11-18T12:24:31.235Z,85707.16
2022-11-18T12:27:48.904Z,85709.84
2022-11-18T12:30:19.640Z,85715.19
2022-11-18T12:32:47.209Z,85722.75
2022-11-18T12:35:35.848Z,85719.09
2022-11-18T12:38:05.379Z,85719.81
2022-11-18T12:40:47.241Z,85726.31
2022-11-18T12:43:29.947Z,85729.06
2022-11-18T12:45:58.543Z,85731.75
2022-11-18T12:48:42.064Z,85741.50
2022-11-18T12:51:16.465Z,85743.81
2022-11-18T12:53:53.737Z,85746.47
2022-11-18T12:56:38.992Z,85745.31
2022-11-18T12:59:13.757Z,85748.63
2022-11-18T13:01:41.021Z,85746.34
2022-11-18T13:04:17.492Z,85747.00
2022-11-18T13:06:47.160Z,85744.31
2022-11-18T13:09:23.392Z,85752.47
2022-11-18T13:12:07.254Z,85757.81
2022-11-18T13:14:43.158Z,85750.88
2022-11-18T13:17:41.425Z,85759.97
2022-11-18T13:20:29.218Z,85761.69
2022-11-18T13:23:01.188Z,85777.56
2022-11-18T13:25:32.775Z,85769.66
2022-11-18T13:28:50.599Z,85775.47
2022-11-18T13:31:42.817Z,85771.00
2022-11-18T13:34:31.874Z,85761.56
2022-11-18T13:37:00.989Z,85765.06
2022-11-18T13:39:33.224Z,85772.38
2022-11-18T13:42:01.762Z,85770.56
2022-11-18T13:44:39.989Z,85773.59
2022-11-18T13:47:22.719Z,85773.97
2022-11-18T13:50:18.958Z,85773.97
2022-11-18T13:53:14.122Z,85777.00
2022-11-18T13:56:07.312Z,85781.41
2022-11-18T14:01:39.166Z,85780.88
2022-11-18T14:04:19.853Z,85786.97
2022-11-18T14:06:47.723Z,85782.03
2022-11-18T14:09:25.895Z,85780.88
2022-11-18T14:12:23.152Z,85792.25
2022-11-18T14:14:50.608Z,85798.59
2022-11-18T14:17:24.833Z,85804.53
2022-11-18T14:19:58.896Z,85803.81
2022-11-18T14:22:28.336Z,85803.00
2022-11-18T14:25:01.760Z,85801.91
2022-11-18T14:27:51.715Z,85798.44
2022-11-18T14:30:31.235Z,85804.16
2022-11-18T14:33:21.429Z,85803.75
2022-11-18T14:35:50.402Z,85812.47
2022-11-18T14:41:22.678Z,85813.22
2022-11-18T14:43:49.884Z,85817.75
2022-11-18T14:46:19.765Z,85825.22
2022-11-18T14:48:47.284Z,85822.56
2022-11-18T14:51:16.384Z,85830.97
2022-11-18T14:53:44.462Z,85828.69
2022-11-18T14:56:29.385Z,85833.91
2022-11-18T14:58:57.752Z,85850.03
2022-11-18T15:01:30.354Z,85855.16
2022-11-18T15:03:58.539Z,85846.09
2022-11-18T15:06:25.967Z,85848.84
2022-11-18T15:08:54.362Z,85844.63
2022-11-18T15:11:21.696Z,85860.09
2022-11-18T15:13:49.589Z,85859.75
2022-11-18T15:16:21.961Z,85862.03
2022-11-18T15:18:53.281Z,85866.19
2022-11-18T15:21:21.892Z,85867.34
2022-11-18T15:23:49.424Z,85882.38
2022-11-18T15:26:23.321Z,85883.19
2022-11-18T15:28:53.820Z,85878.38
2022-11-18T15:31:23.035Z,85887.88
2022-11-18T15:33:51.255Z,85888.66
2022-11-18T15:36:25.551Z,85891.28
2022-11-18T15:38:54.773Z,85902.66
2022-11-18T15:41:24.325Z,85910.22
2022-11-18T15:43:52.826Z,85917.75
2022-11-18T15:46:22.889Z,85916.00
2022-11-18T15:48:55.677Z,85926.09
2022-11-18T15:51:25.462Z,85932.88
2022-11-18T15:53:52.964Z,85936.59
2022-11-18T15:56:22.884Z,85932.03
2022-11-18T15:59:04.732Z,85932.88
2022-11-18T16:01:38.290Z,85939.34
2022-11-18T16:04:08.875Z,85936.28
2022-11-18T16:06:37.217Z,85939.25
2022-11-18T16:09:06.877Z,85940.06
2022-11-18T16:11:34.308Z,85941.72
2022-11-18T16:14:07.623Z,85948.84
2022-11-18T16:16:36.857Z,85945.81
2022-11-18T16:19:08.003Z,85943.22
2022-11-18T16:21:39.229Z,85946.38
2022-11-18T16:24:11.307Z,85958.41
2022-11-18T16:26:39.000Z,85952.41
2022-11-18T16:29:07.603Z,85962.53
2022-11-18T16:31:35.054Z,85963.28
2022-11-18T16:34:14.766Z,85960.81
2022-11-18T16:36:49.037Z,85958.56
2022-11-18T16:39:21.687Z,85967.59
2022-11-18T16:41:51.987Z,85977.31
2022-11-18T16:44:19.707Z,85976.59
2022-11-18T16:46:50.551Z,85979.16
2022-11-18T16:49:21.163Z,85981.78
2022-11-18T16:51:52.442Z,85982.19
2022-11-18T16:54:28.733Z,85983.72
2022-11-18T16:56:58.794Z,85989.41
2022-11-18T16:59:29.009Z,85981.97
2022-11-18T17:01:58.785Z,85977.50
2022-11-18T17:04:28.731Z,85979.06
2022-11-18T17:06:56.687Z,85977.63
2022-11-18T17:09:25.422Z,85987.75
2022-11-18T17:11:54.727Z,85984.41
2022-11-18T17:14:23.263Z,85984.78
2022-11-18T17:16:52.358Z,85994.53
2022-11-18T17:19:22.286Z,85994.88
2022-11-18T17:21:51.604Z,86003.16
2022-11-18T17:24:22.632Z,86002.84
2022-11-18T17:26:51.591Z,85998.72
2022-11-18T17:29:19.160Z,86004.00
2022-11-18T17:31:46.743Z,85999.50
2022-11-18T17:34:15.343Z,86008.88
2022-11-18T17:36:43.280Z,86008.16
2022-11-18T17:39:12.824Z,86009.31
2022-11-18T17:41:40.536Z,86015.28
2022-11-18T17:44:10.535Z,86017.19
2022-11-18T17:46:38.646Z,86021.31
2022-11-18T17:49:13.083Z,86021.72
2022-11-18T17:51:41.061Z,86016.88
2022-11-18T17:54:09.793Z,86020.63
2022-11-18T17:56:37.263Z,86019.50
2022-11-18T17:59:05.021Z,86028.50
2022-11-18T18:01:32.573Z,86025.50
2022-11-18T18:03:59.904Z,86027.75
2022-11-18T18:06:27.381Z,86047.56
2022-11-18T18:08:59.195Z,86047.56
2022-11-18T18:11:27.922Z,86052.44
2022-11-18T18:13:55.984Z,86051.31
2022-11-18T18:16:24.101Z,86052.81
2022-11-18T18:18:51.665Z,86042.34
2022-11-18T18:21:19.367Z,86054.31
2022-11-18T18:23:47.350Z,86058.78
2022-11-18T18:26:15.109Z,86067.78
2022-11-18T18:28:42.946Z,86078.22
2022-11-18T18:31:14.025Z,86078.59
2022-11-18T18:33:42.265Z,86081.97
2022-11-18T18:36:14.837Z,86083.44
2022-11-18T18:38:43.309Z,86092.38
2022-11-18T18:41:17.872Z,86093.13
2022-11-18T18:43:46.269Z,86092.75
2022-11-18T18:46:21.684Z,86099.06
2022-11-18T18:48:49.012Z,86105.81
2022-11-18T18:51:16.490Z,86114.00
2022-11-18T18:53:44.439Z,86121.47
2022-11-18T18:56:14.106Z,86122.59
2022-11-18T18:58:41.523Z,86128.56
2022-11-18T19:01:12.305Z,86130.81
2022-11-18T19:03:40.864Z,86133.75
2022-11-18T19:09:17.659Z,86143.44
2022-11-18T19:11:45.486Z,86149.78
2022-11-18T19:14:17.169Z,86143.81
2022-11-18T19:16:45.876Z,86139.34
2022-11-18T19:19:18.989Z,86149.78
2022-11-18T19:21:46.618Z,86149.75
2022-11-18T19:24:42.425Z,86155.31
2022-11-18T19:27:02.311Z,86155.28
2022-11-18T19:29:29.735Z,86147.84
2022-11-18T19:31:57.164Z,86151.53
2022-11-18T19:34:24.364Z,86151.88
2022-11-18T19:36:51.634Z,86154.88
2022-11-18T19:39:19.486Z,86155.59
2022-11-18T19:41:46.958Z,86163.44
2022-11-18T19:44:14.177Z,86164.16
2022-11-18T19:46:41.423Z,86166.75
2022-11-18T19:49:09.933Z,86173.44
2022-11-18T19:51:37.918Z,86170.81
2022-11-18T19:54:05.946Z,86171.56
2022-11-18T19:56:33.183Z,86165.94
2022-11-18T19:59:00.381Z,86166.31
2022-11-18T20:01:29.045Z,86154.31
2022-11-18T20:03:59.270Z,86152.84
2022-11-18T20:06:27.783Z,86156.91
2022-11-18T20:08:55.576Z,86154.69
2022-11-18T20:11:23.893Z,86154.66
2022-11-18T20:13:51.598Z,86172.91
2022-11-18T20:16:22.634Z,86168.81
2022-11-18T20:19:07.798Z,86180.00
2022-11-18T20:21:36.679Z,86180.72
2022-11-18T20:24:05.892Z,86182.19
2022-11-18T20:26:37.710Z,86182.53
2022-11-18T20:29:07.048Z,86185.81
2022-11-18T20:31:36.557Z,86186.22
2022-11-18T20:34:05.452Z,86183.22
2022-11-18T20:36:36.105Z,86188.78
2022-11-18T20:39:13.156Z,86188.00
2022-11-18T20:41:40.688Z,86186.88
2022-11-18T20:44:07.964Z,86193.91
2022-11-18T20:46:35.648Z,86193.91
2022-11-18T20:49:03.003Z,86198.72
2022-11-18T20:51:30.330Z,86194.97
2022-11-18T20:53:58.552Z,86194.19
2022-11-18T20:56:27.986Z,86201.25
2022-11-18T20:58:57.178Z,86207.19
2022-11-18T21:01:29.699Z,86210.13
2022-11-18T21:04:02.082Z,86210.84
2022-11-18T21:06:32.293Z,86208.94
2022-11-18T21:09:03.327Z,86218.25
2022-11-18T21:11:34.076Z,86220.09
2022-11-18T21:14:01.515Z,86222.31
2022-11-18T21:16:28.890Z,86222.66
2022-11-18T21:18:56.365Z,86220.78
2022-11-18T21:21:23.948Z,86236.03
2022-11-18T21:23:58.696Z,86234.53
2022-11-18T21:26:29.739Z,86239.38
2022-11-18T21:29:00.162Z,86243.84
2022-11-18T21:31:29.220Z,86243.06
2022-11-18T21:33:57.694Z,86242.72
2022-11-18T21:36:27.360Z,86249.78
2022-11-18T21:38:57.424Z,86262.41
2022-11-18T21:41:25.375Z,86264.56
2022-11-18T21:44:07.938Z,86265.31
2022-11-18T21:46:40.732Z,86249.31
2022-11-18T21:49:08.896Z,86254.50
2022-11-18T21:51:36.973Z,86256.69
2022-11-18T21:54:04.728Z,86261.88
2022-11-18T21:56:33.344Z,86273.44
2022-11-18T21:59:02.079Z,86270.06
2022-11-18T22:01:33.719Z,86267.06
2022-11-18T22:04:04.581Z,86273.75
2022-11-18T22:06:34.461Z,86273.75
2022-11-18T22:09:04.164Z,86272.25
2022-11-18T22:11:31.643Z,86274.50
2022-11-18T22:13:58.756Z,86277.09
2022-11-18T22:16:27.062Z,86278.25
2022-11-18T22:19:01.468Z,86283.41
2022-11-18T22:21:31.435Z,86284.56
2022-11-18T22:24:01.040Z,86280.09
2022-11-18T22:26:29.283Z,86290.16
2022-11-18T22:28:58.191Z,86290.13
2022-11-18T22:31:28.372Z,86286.69
2022-11-18T22:33:56.722Z,86281.84
2022-11-18T22:36:26.902Z,86285.19
2022-11-18T22:38:55.552Z,86283.31
2022-11-18T22:41:26.544Z,86279.94
2022-11-18T22:43:53.640Z,86282.84
2022-11-18T22:46:21.038Z,86281.72
2022-11-18T22:48:48.301Z,86280.22
2022-11-18T22:51:16.741Z,86286.94
2022-11-18T22:53:44.128Z,86288.03
2022-11-18T22:56:14.338Z,86291.72
2022-11-18T22:58:43.454Z,86296.59
2022-11-18T23:01:21.771Z,86301.78
2022-11-18T23:03:58.749Z,86293.59
2022-11-18T23:06:26.037Z,86296.88
2022-11-18T23:08:56.822Z,86297.19
2022-11-18T23:11:23.990Z,86297.94
2022-11-18T23:13:51.285Z,86300.53
2022-11-18T23:16:18.577Z,86299.00
2022-11-18T23:18:47.463Z,86309.78
2022-11-18T23:21:15.546Z,86318.75
2022-11-18T23:23:42.944Z,86309.72
2022-11-18T23:26:15.717Z,86310.44
2022-11-18T23:28:43.509Z,86321.50
2022-11-18T23:31:14.992Z,86325.25
2022-11-18T23:33:43.433Z,86327.44
2022-11-18T23:36:14.786Z,86324.06
2022-11-18T23:38:42.637Z,86330.75
2022-11-18T23:41:13.396Z,86330.34
2022-11-18T23:43:41.547Z,86333.69
2022-11-18T23:46:10.126Z,86333.59
2022-11-18T23:48:40.375Z,86336.94
2022-11-18T23:51:18.067Z,86341.69
2022-11-18T23:53:47.715Z,86338.31
2022-11-18T23:56:20.446Z,86338.72
2022-11-18T23:58:50.664Z,86341.28
